createdAt,value
2022-09-05T00:00:11.515Z,8.10
2022-09-05T00:03:08.375Z,8.20
2022-09-05T00:06:05.617Z,8.50
2022-09-05T00:09:21.040Z,10.00
2022-09-05T00:11:59.070Z,10.00
2022-09-05T00:15:17.497Z,13.40
2022-09-05T00:20:36.166Z,10.50
2022-09-05T00:24:20.594Z,7.90
2022-09-05T00:24:50.090Z,6.90
2022-09-05T00:27:43.511Z,7.30
2022-09-05T00:31:07.590Z,8.80
2022-09-05T00:33:46.963Z,10.60
2022-09-05T00:37:00.547Z,10.00
2022-09-05T00:40:17.442Z,9.40
2022-09-05T00:43:17.947Z,7.80
2022-09-05T00:47:15.673Z,7.30
2022-09-05T00:51:08.871Z,7.40
2022-09-05T00:55:02.649Z,8.30
2022-09-05T00:58:40.568Z,8.30
2022-09-05T01:02:00.951Z,10.00
2022-09-05T01:05:01.033Z,7.50
2022-09-05T01:08:07.019Z,6.90
2022-09-05T01:11:08.591Z,8.00
2022-09-05T01:14:26.440Z,9.50
2022-09-05T01:17:27.366Z,7.20
2022-09-05T01:20:38.471Z,7.10
2022-09-05T01:24:01.530Z,6.50
2022-09-05T01:26:48.416Z,9.50
2022-09-05T01:29:40.438Z,6.50
2022-09-05T01:32:15.594Z,7.10
2022-09-05T01:34:56.514Z,7.30
2022-09-05T01:38:00.588Z,7.90
2022-09-05T01:41:18.663Z,9.10
2022-09-05T01:44:20.175Z,8.70
2022-09-05T01:47:31.217Z,7.70
2022-09-05T01:50:36.716Z,8.50
2022-09-05T01:53:26.457Z,6.30
2022-09-05T01:56:17.534Z,9.40
2022-09-05T01:59:10.519Z,7.50
2022-09-05T02:02:39.333Z,7.90
2022-09-05T02:05:58.536Z,6.90
2022-09-05T02:08:53.011Z,8.90
2022-09-05T02:11:48.431Z,7.00
2022-09-05T02:14:51.713Z,9.00
2022-09-05T02:17:50.928Z,10.50
2022-09-05T02:20:41.929Z,10.30
2022-09-05T02:23:41.658Z,10.30
2022-09-05T02:26:40.315Z,8.50
2022-09-05T02:29:44.325Z,10.40
2022-09-05T02:32:28.293Z,6.50
2022-09-05T02:35:43.774Z,7.30
2022-09-05T02:40:45.980Z,7.00
2022-09-05T02:45:12.354Z,7.80
2022-09-05T02:45:26.732Z,8.00
2022-09-05T02:48:27.538Z,7.70
2022-09-05T02:57:28.327Z,8.40
2022-09-05T02:57:43.271Z,9.10
2022-09-05T02:58:07.217Z,8.80
2022-09-05T03:01:04.314Z,6.90
2022-09-05T03:03:48.110Z,7.00
2022-09-05T03:06:55.760Z,6.90
2022-09-05T03:09:44.806Z,9.90
2022-09-05T03:12:45.148Z,8.80
2022-09-05T03:15:42.605Z,7.60
2022-09-05T03:18:30.893Z,8.20
2022-09-05T03:21:35.738Z,9.30
2022-09-05T03:24:31.301Z,9.10
2022-09-05T03:27:47.971Z,9.50
2022-09-05T03:30:24.407Z,10.30
2022-09-05T03:32:59.812Z,9.30
2022-09-05T03:36:16.714Z,7.10
2022-09-05T03:39:17.866Z,6.80
2022-09-05T03:42:36.234Z,9.90
2022-09-05T03:45:14.456Z,9.00
2022-09-05T03:48:28.746Z,9.40
2022-09-05T03:57:10.322Z,11.10
2022-09-05T03:57:26.942Z,8.70
2022-09-05T03:57:50.651Z,9.40
2022-09-05T04:00:34.525Z,8.40
2022-09-05T04:08:10.606Z,9.50
2022-09-05T04:08:19.741Z,9.30
2022-09-05T04:09:50.145Z,13.30
2022-09-05T04:12:27.433Z,9.60
2022-09-05T04:15:11.332Z,9.10
2022-09-05T04:18:07.601Z,7.60
2022-09-05T04:20:47.882Z,9.10
2022-09-05T04:23:51.298Z,12.10
2022-09-05T04:26:37.366Z,11.40
2022-09-05T04:29:44.004Z,10.70
2022-09-05T04:32:54.524Z,9.30
2022-09-05T04:35:39.450Z,8.50
2022-09-05T04:38:37.339Z,8.90
2022-09-05T04:41:14.207Z,10.30
2022-09-05T04:43:53.339Z,15.10
2022-09-05T04:46:28.855Z,23.70
2022-09-05T04:49:19.169Z,15.30
2022-09-05T04:52:13.324Z,12.70
2022-09-05T04:54:57.493Z,13.70
2022-09-05T04:58:02.455Z,17.40
2022-09-05T05:06:01.927Z,13.20
2022-09-05T05:06:10.313Z,11.60
2022-09-05T05:06:48.169Z,14.80
2022-09-05T05:09:32.811Z,13.60
2022-09-05T05:17:58.022Z,12.80
2022-09-05T05:18:10.901Z,10.90
2022-09-05T05:18:36.744Z,16.80
2022-09-05T05:21:23.997Z,13.20
2022-09-05T05:23:59.860Z,10.80
2022-09-05T05:26:56.674Z,19.20
2022-09-05T05:29:38.720Z,18.60
2022-09-05T05:32:09.431Z,14.40
2022-09-05T05:34:46.326Z,11.40
2022-09-05T05:37:32.796Z,11.50
2022-09-05T05:40:17.432Z,12.30
2022-09-05T05:42:50.951Z,15.60
2022-09-05T05:45:47.340Z,14.60
2022-09-05T05:48:22.484Z,14.50
2022-09-05T05:51:10.272Z,16.20
2022-09-05T05:54:13.165Z,12.10
2022-09-05T05:57:01.694Z,11.90
2022-09-05T06:00:17.326Z,14.50
2022-09-05T06:03:27.761Z,14.30
2022-09-05T06:06:22.687Z,11.20
2022-09-05T06:14:51.067Z,10.30
2022-09-05T06:15:05.066Z,13.00
2022-09-05T06:15:47.271Z,12.90
2022-09-05T06:18:58.745Z,12.30
2022-09-05T06:22:09.155Z,13.80
2022-09-05T06:25:07.719Z,10.20
2022-09-05T06:28:26.105Z,9.10
2022-09-05T06:31:19.807Z,9.60
2022-09-05T06:34:33.244Z,9.90
2022-09-05T06:37:10.653Z,10.90
2022-09-05T06:39:57.652Z,11.80
2022-09-05T06:42:44.209Z,15.80
2022-09-05T06:45:30.233Z,12.70
2022-09-05T06:48:14.499Z,10.60
2022-09-05T06:51:45.048Z,11.80
2022-09-05T06:54:34.397Z,9.80
2022-09-05T06:57:44.093Z,9.70
2022-09-05T07:00:39.535Z,12.90
2022-09-05T07:03:33.469Z,11.30
2022-09-05T07:06:23.609Z,12.90
2022-09-05T07:09:45.472Z,9.20
2022-09-05T07:12:22.930Z,9.30
2022-09-05T07:15:22.150Z,15.00
2022-09-05T07:18:14.229Z,9.40
2022-09-05T07:21:18.210Z,10.40
2022-09-05T07:24:53.556Z,9.00
2022-09-05T07:27:30.129Z,10.80
2022-09-05T07:30:01.861Z,10.00
2022-09-05T07:32:29.970Z,8.00
2022-09-05T07:35:03.987Z,7.20
2022-09-05T07:37:39.475Z,7.90
2022-09-05T07:40:24.856Z,7.60
2022-09-05T07:43:09.736Z,16.30
2022-09-05T07:45:46.468Z,11.00
2022-09-05T07:48:35.193Z,10.30
2022-09-05T07:56:46.587Z,9.80
2022-09-05T07:57:05.031Z,9.40
2022-09-05T07:57:27.002Z,8.30
2022-09-05T08:00:29.761Z,7.80
2022-09-05T08:03:08.639Z,8.00
2022-09-05T08:05:40.428Z,7.50
2022-09-05T08:08:14.305Z,12.40
2022-09-05T08:11:22.493Z,10.80
2022-09-05T08:13:42.726Z,11.50
2022-09-05T08:16:31.286Z,7.90
2022-09-05T08:19:36.872Z,8.30
2022-09-05T08:22:32.009Z,8.20
2022-09-05T08:25:35.024Z,12.00
2022-09-05T08:28:39.021Z,11.00
2022-09-05T08:31:16.342Z,13.10
2022-09-05T08:33:51.707Z,10.80
2022-09-05T08:36:32.529Z,10.60
2022-09-05T08:39:00.672Z,11.60
2022-09-05T08:41:50.210Z,10.30
2022-09-05T08:46:44.401Z,10.40
2022-09-05T08:47:59.334Z,9.70
2022-09-05T08:50:55.639Z,14.90
2022-09-05T08:54:04.522Z,9.50
2022-09-05T08:57:27.142Z,10.50
2022-09-05T09:00:20.907Z,12.90
2022-09-05T09:03:14.183Z,10.40
2022-09-05T09:06:20.468Z,10.80
2022-09-05T09:09:18.459Z,9.70
2022-09-05T09:11:54.086Z,9.50
2022-09-05T09:14:36.608Z,9.00
2022-09-05T09:17:45.768Z,11.40
2022-09-05T09:20:45.315Z,12.80
2022-09-05T09:23:32.228Z,13.00
2022-09-05T09:26:18.925Z,11.40
2022-09-05T09:29:02.408Z,12.10
2022-09-05T09:31:50.865Z,17.30
2022-09-05T09:34:36.757Z,24.50
2022-09-05T09:41:00.699Z,21.00
2022-09-05T09:46:21.186Z,14.00
2022-09-05T09:48:58.261Z,21.20
2022-09-05T09:51:34.353Z,12.20
2022-09-05T09:54:32.755Z,12.90
2022-09-05T09:57:29.567Z,16.20
2022-09-05T10:00:12.276Z,11.60
2022-09-05T10:07:47.917Z,9.50
2022-09-05T10:10:59.635Z,11.00
2022-09-05T10:11:24.563Z,11.70
2022-09-05T10:11:55.894Z,11.40
2022-09-05T10:15:23.228Z,9.80
2022-09-05T10:18:24.038Z,8.80
2022-09-05T10:21:17.702Z,11.10
2022-09-05T10:23:56.614Z,12.80
2022-09-05T10:26:54.481Z,14.30
2022-09-05T10:29:40.858Z,24.90
2022-09-05T10:35:09.626Z,13.60
2022-09-05T10:35:31.610Z,13.30
2022-09-05T10:38:11.446Z,23.90
2022-09-05T10:41:05.089Z,12.50
2022-09-05T10:44:21.549Z,11.80
2022-09-05T10:48:14.094Z,9.60
2022-09-05T10:51:37.902Z,8.00
2022-09-05T10:55:28.855Z,10.40
2022-09-05T10:59:33.111Z,8.40
2022-09-05T11:02:30.354Z,8.60
2022-09-05T11:04:49.614Z,7.10
2022-09-05T11:07:29.744Z,8.90
2022-09-05T11:10:20.381Z,6.00
2022-09-05T11:13:10.906Z,6.50
2022-09-05T11:16:13.426Z,12.80
2022-09-05T11:18:59.420Z,7.80
2022-09-05T11:22:22.698Z,10.30
2022-09-05T11:26:36.799Z,12.50
2022-09-05T11:29:11.079Z,8.00
2022-09-05T11:31:59.169Z,9.10
2022-09-05T11:39:51.544Z,13.40
2022-09-05T11:40:05.205Z,12.20
2022-09-05T11:41:33.584Z,8.00
2022-09-05T11:44:35.843Z,7.90
2022-09-05T11:47:29.729Z,6.60
2022-09-05T11:50:25.315Z,7.40
2022-09-05T11:53:11.646Z,20.90
2022-09-05T11:55:55.045Z,7.30
2022-09-05T11:58:45.032Z,6.10
2022-09-05T12:01:41.742Z,6.50
2022-09-05T12:04:42.367Z,6.60
2022-09-05T12:07:33.732Z,5.30
2022-09-05T12:14:20.987Z,7.00
2022-09-05T12:17:51.232Z,6.20
2022-09-05T12:20:43.161Z,7.30
2022-09-05T12:24:12.732Z,5.30
2022-09-05T12:27:44.804Z,8.20
2022-09-05T12:29:52.205Z,8.20
2022-09-05T12:36:01.445Z,7.10
2022-09-05T12:36:12.190Z,9.10
2022-09-05T12:40:55.968Z,10.30
2022-09-05T12:42:09.731Z,10.60
2022-09-05T12:42:51.168Z,6.00
2022-09-05T12:45:42.718Z,10.20
2022-09-05T12:48:38.904Z,8.10
2022-09-05T12:51:18.054Z,13.00
2022-09-05T12:54:47.904Z,8.60
2022-09-05T13:01:27.105Z,5.60
2022-09-05T13:03:08.576Z,8.40
2022-09-05T13:03:29.810Z,7.30
2022-09-05T13:06:25.484Z,7.20
2022-09-05T13:09:32.307Z,12.20
2022-09-05T13:14:56.948Z,8.00
2022-09-05T13:15:27.279Z,10.50
2022-09-05T13:18:16.613Z,7.10
2022-09-05T13:20:59.169Z,6.30
2022-09-05T13:23:41.900Z,6.40
2022-09-05T13:26:32.615Z,6.60
2022-09-05T13:29:18.601Z,7.10
2022-09-05T13:38:07.594Z,8.40
2022-09-05T13:38:12.341Z,7.50
2022-09-05T13:38:47.600Z,10.30
2022-09-05T13:41:27.067Z,10.30
2022-09-05T13:44:25.139Z,6.20
2022-09-05T13:47:29.483Z,12.70
2022-09-05T13:50:17.498Z,10.90
2022-09-05T13:52:47.857Z,8.60
2022-09-05T13:55:20.675Z,6.90
2022-09-05T13:57:58.040Z,6.70
2022-09-05T14:00:40.932Z,6.10
2022-09-05T14:03:50.705Z,11.40
2022-09-05T14:11:07.288Z,6.90
2022-09-05T14:13:40.013Z,16.40
2022-09-05T14:18:58.952Z,13.10
2022-09-05T14:22:10.833Z,7.10
2022-09-05T14:24:56.109Z,6.60
2022-09-05T14:27:32.639Z,6.80
2022-09-05T14:30:05.445Z,7.10
2022-09-05T14:37:43.039Z,7.40
2022-09-05T14:37:54.225Z,8.30
2022-09-05T14:41:02.800Z,6.30
2022-09-05T14:43:48.786Z,5.30
2022-09-05T14:46:55.918Z,12.00
2022-09-05T14:49:44.834Z,12.00
2022-09-05T14:52:24.596Z,8.90
2022-09-05T14:55:22.374Z,8.80
2022-09-05T15:02:43.047Z,6.00
2022-09-05T15:02:50.860Z,6.30
2022-09-05T15:06:40.487Z,9.60
2022-09-05T15:12:15.504Z,9.10
2022-09-05T15:12:33.288Z,6.90
2022-09-05T15:15:08.073Z,9.40
2022-09-05T15:17:38.078Z,7.00
2022-09-05T15:20:23.862Z,7.50
2022-09-05T15:22:56.215Z,7.10
2022-09-05T15:25:29.441Z,7.80
2022-09-05T15:27:59.182Z,9.80
2022-09-05T15:30:35.857Z,8.60
2022-09-05T15:33:34.774Z,7.30
2022-09-05T15:36:17.863Z,6.90
2022-09-05T15:38:55.914Z,8.70
2022-09-05T15:41:35.673Z,9.40
2022-09-05T15:44:12.680Z,11.90
2022-09-05T15:46:49.990Z,18.70
2022-09-05T15:49:43.086Z,15.60
2022-09-05T15:52:27.275Z,9.00
2022-09-05T15:55:43.094Z,8.60
2022-09-05T15:58:17.890Z,12.30
2022-09-05T16:01:05.049Z,15.20
2022-09-05T16:05:21.128Z,24.00
2022-09-05T16:10:38.972Z,23.70
2022-09-05T16:10:45.941Z,25.70
2022-09-05T16:17:46.143Z,17.60
2022-09-05T16:23:28.094Z,14.80
2022-09-05T16:23:32.906Z,7.50
2022-09-05T16:23:49.828Z,12.60
2022-09-05T16:26:26.555Z,14.70
2022-09-05T16:29:25.915Z,17.00
2022-09-05T16:32:22.421Z,10.50
2022-09-05T16:35:06.437Z,12.90
2022-09-05T16:38:07.023Z,12.40
2022-09-05T16:40:51.196Z,18.50
2022-09-05T16:43:27.778Z,11.10
2022-09-05T16:46:27.262Z,16.00
2022-09-05T16:49:36.859Z,13.70
2022-09-05T16:52:36.841Z,12.00
2022-09-05T16:55:54.392Z,12.60
2022-09-05T16:58:58.135Z,15.70
2022-09-05T17:01:34.935Z,15.40
2022-09-05T17:04:29.946Z,11.60
2022-09-05T17:06:59.884Z,16.40
2022-09-05T17:09:29.688Z,20.50
2022-09-05T17:12:01.816Z,16.40
2022-09-05T17:14:35.197Z,24.30
2022-09-05T17:18:19.250Z,17.70
2022-09-05T17:20:18.823Z,13.80
2022-09-05T17:27:35.493Z,14.60
2022-09-05T17:29:25.566Z,19.80
2022-09-05T17:29:33.325Z,16.90
2022-09-05T17:32:01.848Z,15.10
2022-09-05T17:34:51.132Z,19.00
2022-09-05T17:37:29.206Z,17.80
2022-09-05T17:40:44.222Z,21.40
2022-09-05T17:43:30.084Z,22.80
2022-09-05T17:46:16.347Z,31.90
2022-09-05T17:49:10.133Z,45.00
2022-09-05T17:54:20.139Z,120.40
2022-09-05T17:56:53.468Z,126.90
2022-09-05T17:59:21.715Z,82.20
2022-09-05T18:02:08.015Z,61.90
2022-09-05T18:04:49.243Z,65.40
2022-09-05T18:07:19.777Z,68.80
2022-09-05T18:13:31.735Z,52.80
2022-09-05T18:16:03.842Z,41.20
2022-09-05T18:19:33.271Z,29.70
2022-09-05T18:22:00.530Z,30.00
2022-09-05T18:24:42.373Z,28.40
2022-09-05T18:28:03.436Z,32.80
2022-09-05T18:30:21.482Z,21.10
2022-09-05T18:32:54.217Z,21.60
2022-09-05T18:35:57.906Z,19.40
2022-09-05T18:38:50.052Z,22.30
2022-09-05T18:41:23.531Z,26.00
2022-09-05T18:44:14.858Z,20.50
2022-09-05T18:46:53.583Z,21.10
2022-09-05T18:50:21.301Z,17.80
2022-09-05T18:52:23.379Z,20.10
2022-09-05T18:55:57.864Z,15.50
2022-09-05T18:57:59.159Z,16.50
2022-09-05T19:00:44.608Z,15.50
2022-09-05T19:03:25.206Z,12.40
2022-09-05T19:06:34.888Z,16.00
2022-09-05T19:09:14.597Z,14.60
2022-09-05T19:11:54.140Z,14.70
2022-09-05T19:14:29.379Z,16.00
2022-09-05T19:17:27.947Z,20.60
2022-09-05T19:20:31.475Z,16.30
2022-09-05T19:23:10.780Z,15.80
2022-09-05T19:25:42.386Z,17.80
2022-09-05T19:35:05.992Z,13.70
2022-09-05T19:36:50.676Z,15.50
2022-09-05T19:36:51.770Z,14.80
2022-09-05T19:37:29.024Z,16.00
2022-09-05T19:43:24.163Z,15.30
2022-09-05T19:47:29.755Z,12.00
2022-09-05T19:47:47.234Z,11.70
2022-09-05T19:48:26.522Z,13.30
2022-09-05T19:50:55.526Z,13.00
2022-09-05T19:53:27.022Z,12.00
2022-09-05T19:55:54.879Z,15.10
2022-09-05T19:58:23.432Z,14.40
2022-09-05T20:01:04.307Z,15.30
2022-09-05T20:03:38.731Z,9.90
2022-09-05T20:06:29.383Z,12.00
2022-09-05T20:09:14.470Z,13.30
2022-09-05T20:11:52.426Z,10.90
2022-09-05T20:14:30.397Z,9.60
2022-09-05T20:17:28.519Z,13.60
2022-09-05T20:20:10.630Z,9.50
2022-09-05T20:22:49.043Z,12.40
2022-09-05T20:25:35.291Z,10.30
2022-09-05T20:32:07.094Z,11.20
2022-09-05T20:35:51.603Z,9.50
2022-09-05T20:43:15.405Z,10.50
2022-09-05T20:43:22.840Z,10.20
2022-09-05T20:43:59.824Z,8.80
2022-09-05T20:49:22.869Z,11.10
2022-09-05T20:54:15.239Z,10.20
2022-09-05T20:54:16.796Z,9.40
2022-09-05T20:55:42.243Z,9.60
2022-09-05T20:58:24.626Z,6.20
2022-09-05T21:01:24.914Z,7.30
2022-09-05T21:03:56.525Z,8.20
2022-09-05T21:06:36.320Z,10.00
2022-09-05T21:09:15.958Z,12.70
2022-09-05T21:11:55.935Z,10.60
2022-09-05T21:14:24.056Z,10.10
2022-09-05T21:17:15.815Z,8.90
2022-09-05T21:19:54.064Z,8.80
2022-09-05T21:22:24.941Z,9.40
2022-09-05T21:28:32.713Z,7.30
2022-09-05T21:31:12.221Z,9.20
2022-09-05T21:33:46.381Z,10.70
2022-09-05T21:36:42.044Z,8.60
2022-09-05T21:39:36.447Z,9.50
2022-09-05T21:42:21.312Z,9.20
2022-09-05T21:47:39.314Z,9.10
2022-09-05T21:48:01.280Z,9.00
2022-09-05T21:50:41.780Z,10.60
2022-09-05T21:56:38.675Z,7.30
2022-09-05T21:59:30.077Z,9.90
2022-09-05T22:00:20.353Z,8.20
2022-09-05T22:02:49.681Z,12.40
2022-09-05T22:05:34.344Z,9.40
2022-09-05T22:08:02.191Z,8.80
2022-09-05T22:10:51.483Z,8.20
2022-09-05T22:13:30.354Z,6.80
2022-09-05T22:16:04.750Z,10.10
2022-09-05T22:18:32.899Z,6.20
2022-09-05T22:21:33.235Z,7.30
2022-09-05T22:24:11.752Z,8.60
2022-09-05T22:27:00.159Z,7.70
2022-09-05T22:29:36.593Z,8.40
2022-09-05T22:32:07.187Z,9.20
2022-09-05T22:34:37.436Z,7.70
2022-09-05T22:37:05.099Z,13.00
2022-09-05T22:39:36.831Z,9.00
2022-09-05T22:42:12.908Z,5.70
2022-09-05T22:44:46.089Z,7.40
2022-09-05T22:47:13.711Z,6.50
2022-09-05T22:49:44.583Z,9.30
2022-09-05T22:54:48.177Z,7.40
2022-09-05T22:57:29.076Z,7.00
2022-09-05T23:00:02.058Z,7.70
2022-09-05T23:02:30.117Z,6.40
2022-09-05T23:05:00.963Z,7.70
2022-09-05T23:07:32.739Z,7.80
2022-09-05T23:10:04.159Z,7.20
2022-09-05T23:12:36.346Z,8.80
2022-09-05T23:15:07.372Z,8.10
2022-09-05T23:17:35.041Z,7.10
2022-09-05T23:20:06.102Z,6.70
2022-09-05T23:22:36.099Z,7.20
2022-09-05T23:25:16.466Z,7.20
2022-09-05T23:27:43.952Z,6.90
2022-09-05T23:30:11.513Z,8.10
2022-09-05T23:32:47.102Z,6.00
2022-09-05T23:35:14.788Z,7.10
2022-09-05T23:37:44.057Z,7.80
2022-09-05T23:40:15.303Z,10.00
2022-09-05T23:43:04.195Z,7.40
2022-09-05T23:45:35.024Z,8.10
2022-09-05T23:48:13.957Z,6.80
2022-09-05T23:50:41.606Z,7.50
2022-09-05T23:53:09.039Z,7.30
2022-09-05T23:55:41.905Z,6.10
2022-09-05T23:58:10.174Z,7.80
